Holloway, Louisiana
Current Conditions -  °F | °C
As of 2:53 AM on Monday 22 Dec 2014 (Local Time) from KESF Reporting Station
Overcast Overcast  
Wind Chill:   Ceiling: 300
Heat Index:   Visibility: 10mi
Dew Point:   Wind: 0mph
Humidity: 100%   Direction: NA
Pressure: 29.87"   Gusts: NA
Location:  31.3606°N, 92.2142°W
Report Text: KESF 220853Z AUTO 00000KT 10SM OVC003 09/09 A2987 RMK AO2 SLP113 T00940094 58014
Loading
Personal Weather Stations






























Interactive Weather Map New forecast layout! Learn more

10-Day Weather Forecast

Advertisements
Track Severe Weather on mobile